createdAt,value
2023-04-26T00:00:47.390Z,62.71
2023-04-26T00:01:47.367Z,62.79
2023-04-26T00:02:47.477Z,62.81
2023-04-26T00:05:47.462Z,62.83
2023-04-26T00:08:47.417Z,62.72
2023-04-26T00:09:47.436Z,62.50
2023-04-26T00:10:47.435Z,62.36
2023-04-26T00:13:47.411Z,62.42
2023-04-26T00:14:47.432Z,62.42
2023-04-26T00:15:47.431Z,62.20
2023-04-26T00:16:47.501Z,62.87
2023-04-26T00:17:47.550Z,62.87
2023-04-26T00:19:47.466Z,62.80
2023-04-26T00:20:47.504Z,63.16
2023-04-26T00:21:47.411Z,63.16
2023-04-26T00:22:47.453Z,62.67
2023-04-26T00:23:47.407Z,62.67
2023-04-26T00:24:47.509Z,62.68
2023-04-26T00:25:47.463Z,62.68
2023-04-26T00:26:47.420Z,62.38
2023-04-26T00:27:47.504Z,62.56
2023-04-26T00:28:47.452Z,62.56
2023-04-26T00:29:47.444Z,62.56
2023-04-26T00:30:47.491Z,62.13
2023-04-26T00:32:47.577Z,62.28
2023-04-26T00:33:47.488Z,62.55
2023-04-26T00:34:47.459Z,62.36
2023-04-26T00:35:47.486Z,62.15
2023-04-26T00:36:47.511Z,62.11
2023-04-26T00:37:47.456Z,62.11
2023-04-26T00:38:47.504Z,61.97
2023-04-26T00:39:47.506Z,61.97
2023-04-26T00:40:47.481Z,62.61
2023-04-26T00:41:47.497Z,62.77
2023-04-26T00:42:47.476Z,62.77
2023-04-26T00:43:47.499Z,62.77
2023-04-26T00:44:47.512Z,62.71
2023-04-26T00:45:47.504Z,62.71
2023-04-26T00:46:47.517Z,63.00
2023-04-26T00:48:47.506Z,63.25
2023-04-26T00:49:47.502Z,63.03
2023-04-26T00:50:47.479Z,62.97
2023-04-26T00:51:47.505Z,63.12
2023-04-26T00:52:47.499Z,63.22
2023-04-26T00:53:47.526Z,63.07
2023-04-26T00:54:47.537Z,62.81
2023-04-26T00:55:47.518Z,62.81
2023-04-26T00:56:47.542Z,62.92
2023-04-26T00:58:47.513Z,62.80
2023-04-26T00:59:47.569Z,62.52
2023-04-26T01:00:47.636Z,62.52
2023-04-26T01:03:47.819Z,62.65
2023-04-26T01:05:47.559Z,62.87
2023-04-26T01:06:47.507Z,62.87
2023-04-26T01:07:47.529Z,63.00
2023-04-26T01:08:47.524Z,63.03
2023-04-26T01:09:47.592Z,62.99
2023-04-26T01:10:47.595Z,62.90
2023-04-26T01:11:47.557Z,62.90
2023-04-26T01:12:47.576Z,63.07
2023-04-26T01:13:47.547Z,62.97
2023-04-26T01:14:47.560Z,63.17
2023-04-26T01:15:47.612Z,62.69
2023-04-26T01:16:47.619Z,62.69
2023-04-26T01:18:47.587Z,62.57
2023-04-26T01:19:47.632Z,62.80
2023-04-26T01:20:47.596Z,62.86
2023-04-26T01:21:47.559Z,62.86
2023-04-26T01:22:47.599Z,63.11
2023-04-26T01:23:47.615Z,63.25
2023-04-26T01:24:47.569Z,63.25
2023-04-26T01:26:47.637Z,63.34
2023-04-26T01:27:47.613Z,63.37
2023-04-26T01:28:47.631Z,62.89
2023-04-26T01:29:47.620Z,62.84
2023-04-26T01:30:47.674Z,62.47
2023-04-26T01:31:47.630Z,62.40
2023-04-26T01:32:47.675Z,62.40
2023-04-26T01:33:47.640Z,62.39
2023-04-26T01:34:47.611Z,62.33
2023-04-26T01:35:47.617Z,62.33
2023-04-26T01:36:47.593Z,62.67
2023-04-26T01:37:47.630Z,62.90
2023-04-26T01:38:47.640Z,63.34
2023-04-26T01:39:47.642Z,63.46
2023-04-26T01:40:47.676Z,63.21
2023-04-26T01:41:47.636Z,63.43
2023-04-26T01:43:47.692Z,63.43
2023-04-26T01:44:47.677Z,63.64
2023-04-26T01:45:47.649Z,63.64
2023-04-26T01:47:47.734Z,63.99
2023-04-26T01:48:47.627Z,63.99
2023-04-26T01:49:47.720Z,64.23
2023-04-26T01:50:47.634Z,64.15
2023-04-26T01:51:47.694Z,64.26
2023-04-26T01:52:47.687Z,63.83
2023-04-26T01:53:47.715Z,63.51
2023-04-26T01:54:47.718Z,63.33
2023-04-26T01:55:47.643Z,63.33
2023-04-26T01:57:47.714Z,63.18
2023-04-26T01:58:47.708Z,63.16
2023-04-26T01:59:47.683Z,63.16
2023-04-26T02:00:47.691Z,63.17
2023-04-26T02:02:47.778Z,63.17
2023-04-26T02:03:47.695Z,63.17
2023-04-26T02:04:47.738Z,63.18
2023-04-26T02:05:47.681Z,63.00
2023-04-26T02:06:47.672Z,63.00
2023-04-26T02:07:47.709Z,63.08
2023-04-26T02:08:47.726Z,63.09
2023-04-26T02:09:47.724Z,63.18
2023-04-26T02:10:47.746Z,63.20
2023-04-26T02:12:47.745Z,63.30
2023-04-26T02:13:47.719Z,63.32
2023-04-26T02:14:47.700Z,63.27
2023-04-26T02:15:47.776Z,63.27
2023-04-26T02:16:47.687Z,63.32
2023-04-26T02:17:47.774Z,63.15
2023-04-26T02:18:47.716Z,63.08
2023-04-26T02:19:47.733Z,63.08
2023-04-26T02:21:47.709Z,63.45
2023-04-26T02:22:47.759Z,63.39
2023-04-26T02:23:47.715Z,63.39
2023-04-26T02:24:47.728Z,63.32
2023-04-26T02:25:47.791Z,63.18
2023-04-26T02:26:47.734Z,63.18
2023-04-26T02:27:47.749Z,63.05
2023-04-26T02:28:47.778Z,62.84
2023-04-26T02:29:47.776Z,62.68
2023-04-26T02:30:47.809Z,62.53
2023-04-26T02:31:47.796Z,62.62
2023-04-26T02:32:47.771Z,62.62
2023-04-26T02:33:47.766Z,62.68
2023-04-26T02:35:47.798Z,62.85
2023-04-26T02:36:47.816Z,62.77
2023-04-26T02:40:47.757Z,62.70
2023-04-26T02:41:47.810Z,62.89
2023-04-26T02:43:47.796Z,62.65
2023-04-26T02:44:47.835Z,62.86
2023-04-26T02:47:47.898Z,62.85
2023-04-26T02:48:47.838Z,62.84
2023-04-26T02:49:47.795Z,62.84
2023-04-26T02:51:47.833Z,62.50
2023-04-26T02:52:47.817Z,62.50
2023-04-26T02:53:47.832Z,62.58
2023-04-26T02:54:47.821Z,62.69
2023-04-26T02:55:47.863Z,62.72
2023-04-26T02:56:47.859Z,62.70
2023-04-26T02:57:47.854Z,62.61
2023-04-26T02:58:47.816Z,62.61
2023-04-26T03:00:47.916Z,62.48
2023-04-26T03:01:47.837Z,62.48
2023-04-26T03:02:47.950Z,62.62
2023-04-26T03:03:47.961Z,62.48
2023-04-26T03:05:47.871Z,62.49
2023-04-26T03:07:47.839Z,62.20
2023-04-26T03:08:47.854Z,62.42
2023-04-26T03:09:47.848Z,62.42
2023-04-26T03:11:50.023Z,62.73
2023-04-26T03:12:47.904Z,62.63
2023-04-26T03:14:47.851Z,62.35
2023-04-26T03:15:47.827Z,62.27
2023-04-26T03:16:47.985Z,62.38
2023-04-26T03:17:47.915Z,62.38
2023-04-26T03:18:47.910Z,62.46
2023-04-26T03:19:47.861Z,62.58
2023-04-26T03:21:47.905Z,62.86
2023-04-26T03:22:47.995Z,62.85
2023-04-26T03:23:47.934Z,62.84
2023-04-26T03:24:47.882Z,62.84
2023-04-26T03:25:47.867Z,62.76
2023-04-26T03:26:47.914Z,62.69
2023-04-26T03:27:47.876Z,62.69
2023-04-26T03:29:47.952Z,62.78
2023-04-26T03:30:47.999Z,62.89
2023-04-26T03:31:47.930Z,62.89
2023-04-26T03:32:48.000Z,62.59
2023-04-26T03:34:47.971Z,62.51
2023-04-26T03:36:48.049Z,62.51
2023-04-26T03:38:47.939Z,62.49
2023-04-26T03:40:47.927Z,62.47
2023-04-26T03:42:47.945Z,62.68
2023-04-26T03:43:47.946Z,62.74
2023-04-26T03:45:47.968Z,62.85
2023-04-26T03:46:48.022Z,62.71
2023-04-26T03:47:47.934Z,62.71
2023-04-26T03:49:47.965Z,62.58
2023-04-26T03:51:47.982Z,62.53
2023-04-26T03:52:47.991Z,62.64
2023-04-26T03:54:47.952Z,62.63
2023-04-26T03:55:47.984Z,62.36
2023-04-26T03:56:47.931Z,62.42
2023-04-26T03:57:47.983Z,62.73
2023-04-26T03:58:47.976Z,62.87
2023-04-26T04:00:48.015Z,62.82
2023-04-26T04:01:47.987Z,62.81
2023-04-26T04:02:48.148Z,62.91
2023-04-26T04:03:48.137Z,62.97
2023-04-26T04:05:48.030Z,62.93
2023-04-26T04:06:48.057Z,63.00
2023-04-26T04:07:48.002Z,63.14
2023-04-26T04:08:48.042Z,63.20
2023-04-26T04:09:47.972Z,63.20
2023-04-26T04:10:48.041Z,63.32
2023-04-26T04:11:48.000Z,63.14
2023-04-26T04:12:48.031Z,63.19
2023-04-26T04:14:48.023Z,63.15
2023-04-26T04:15:48.072Z,63.10
2023-04-26T04:16:48.022Z,63.21
2023-04-26T04:19:48.043Z,62.96
2023-04-26T04:20:48.028Z,63.01
2023-04-26T04:22:48.009Z,63.07
2023-04-26T04:23:48.077Z,62.60
2023-04-26T04:24:48.100Z,62.73
2023-04-26T04:25:47.994Z,62.73
2023-04-26T04:26:48.048Z,63.13
2023-04-26T04:27:48.044Z,63.31
2023-04-26T04:28:48.097Z,63.39
2023-04-26T04:29:48.090Z,63.42
2023-04-26T04:30:48.052Z,63.42
2023-04-26T04:31:48.073Z,63.45
2023-04-26T04:32:48.130Z,63.53
2023-04-26T04:33:48.054Z,63.38
2023-04-26T04:34:49.583Z,63.26
2023-04-26T04:35:48.069Z,63.20
2023-04-26T04:36:48.074Z,63.03
2023-04-26T04:37:48.036Z,63.03
2023-04-26T04:38:48.071Z,63.33
2023-04-26T04:39:48.054Z,63.37
2023-04-26T04:40:48.104Z,64.04
2023-04-26T04:41:48.230Z,64.55
2023-04-26T04:42:48.134Z,65.11
2023-04-26T04:43:48.058Z,65.11
2023-04-26T04:44:48.118Z,65.59
2023-04-26T04:45:48.089Z,65.62
2023-04-26T04:46:48.076Z,65.62
2023-04-26T04:47:48.124Z,65.57
2023-04-26T04:48:48.086Z,65.81
2023-04-26T04:49:48.163Z,65.84
2023-04-26T04:50:48.056Z,65.84
2023-04-26T04:52:48.155Z,65.51
2023-04-26T04:53:48.077Z,65.45
2023-04-26T04:54:48.093Z,65.45
2023-04-26T04:55:48.144Z,65.66
2023-04-26T04:56:48.100Z,65.66
2023-04-26T04:57:48.120Z,65.73
2023-04-26T04:58:48.170Z,66.15
2023-04-26T04:59:48.114Z,66.74
2023-04-26T05:00:48.180Z,67.00
2023-04-26T05:01:48.251Z,67.01
2023-04-26T05:02:48.272Z,66.85
2023-04-26T05:03:48.299Z,66.68
2023-04-26T05:04:48.185Z,66.68
2023-04-26T05:05:48.166Z,66.35
2023-04-26T05:06:48.176Z,66.10
2023-04-26T05:07:48.116Z,66.10
2023-04-26T05:08:48.173Z,66.25
2023-04-26T05:09:48.177Z,66.31
2023-04-26T05:10:48.163Z,66.20
2023-04-26T05:11:48.130Z,66.20
2023-04-26T05:12:48.151Z,65.71
2023-04-26T05:13:48.938Z,65.36
2023-04-26T05:14:48.163Z,65.02
2023-04-26T05:15:48.170Z,64.65
2023-04-26T05:16:48.347Z,64.76
2023-04-26T05:17:48.206Z,64.76
2023-04-26T05:18:48.183Z,64.56
2023-04-26T05:19:48.218Z,64.72
2023-04-26T05:20:48.241Z,64.72
2023-04-26T05:21:48.177Z,64.57
2023-04-26T05:22:48.210Z,64.20
2023-04-26T05:23:48.207Z,64.20
2023-04-26T05:24:48.194Z,64.03
2023-04-26T05:25:48.149Z,64.03
2023-04-26T05:26:48.197Z,63.58
2023-04-26T05:27:48.234Z,63.77
2023-04-26T05:28:48.180Z,63.77
2023-04-26T05:29:48.198Z,63.75
2023-04-26T05:30:48.197Z,63.49
2023-04-26T05:31:48.226Z,63.35
2023-04-26T05:32:48.307Z,63.14
2023-04-26T05:33:48.191Z,63.14
2023-04-26T05:34:48.224Z,63.04
2023-04-26T05:35:48.230Z,62.90
2023-04-26T05:36:48.250Z,63.06
2023-04-26T05:37:48.241Z,63.07
2023-04-26T05:38:48.215Z,63.07
2023-04-26T05:39:48.252Z,63.04
2023-04-26T05:40:48.257Z,62.76
2023-04-26T05:42:48.251Z,63.15
2023-04-26T05:44:48.292Z,62.84
2023-04-26T05:45:48.304Z,62.77
2023-04-26T05:46:48.221Z,62.77
2023-04-26T05:47:48.281Z,63.09
2023-04-26T05:48:48.256Z,62.96
2023-04-26T05:49:48.223Z,62.96
2023-04-26T05:50:48.261Z,63.32
2023-04-26T05:51:48.296Z,63.60
2023-04-26T05:53:48.290Z,63.96
2023-04-26T05:54:48.235Z,64.01
2023-04-26T05:55:48.280Z,63.91
2023-04-26T05:56:48.225Z,63.91
2023-04-26T05:57:48.282Z,63.50
2023-04-26T05:58:48.277Z,63.50
2023-04-26T05:59:48.266Z,63.50
2023-04-26T06:00:48.333Z,63.30
2023-04-26T06:01:48.345Z,63.27
2023-04-26T06:03:48.557Z,63.03
2023-04-26T06:05:48.476Z,63.15
2023-04-26T06:06:48.320Z,62.80
2023-04-26T06:07:48.274Z,62.80
2023-04-26T06:08:48.296Z,63.30
2023-04-26T06:09:48.249Z,63.30
2023-04-26T06:10:48.307Z,64.26
2023-04-26T06:11:48.323Z,64.21
2023-04-26T06:12:48.280Z,64.21
2023-04-26T06:13:48.286Z,64.40
2023-04-26T06:14:48.312Z,64.46
2023-04-26T06:16:48.373Z,64.24
2023-04-26T06:17:48.410Z,64.13
2023-04-26T06:18:48.379Z,64.04
2023-04-26T06:19:48.371Z,64.27
2023-04-26T06:20:48.276Z,64.27
2023-04-26T06:21:48.352Z,63.54
2023-04-26T06:22:48.368Z,62.90
2023-04-26T06:23:48.297Z,62.90
2023-04-26T06:24:48.357Z,62.95
2023-04-26T06:25:48.344Z,62.88
2023-04-26T06:26:48.294Z,62.88
2023-04-26T06:27:48.375Z,62.42
2023-04-26T06:28:48.331Z,62.42
2023-04-26T06:29:48.376Z,62.72
2023-04-26T06:30:48.394Z,62.69
2023-04-26T06:31:48.364Z,61.75
2023-04-26T06:32:48.648Z,61.81
2023-04-26T06:33:48.337Z,61.81
2023-04-26T06:34:48.354Z,61.58
2023-04-26T06:35:48.325Z,61.58
2023-04-26T06:36:48.350Z,61.26
2023-04-26T06:38:48.381Z,60.57
2023-04-26T06:39:48.399Z,60.89
2023-04-26T06:40:48.369Z,60.89
2023-04-26T06:41:49.236Z,61.05
2023-04-26T06:42:48.407Z,61.34
2023-04-26T06:43:48.356Z,61.34
2023-04-26T06:44:48.348Z,61.45
2023-04-26T06:45:48.406Z,61.21
2023-04-26T06:46:48.497Z,60.89
2023-04-26T06:47:48.428Z,60.90
2023-04-26T06:48:48.405Z,60.50
2023-04-26T06:49:48.406Z,60.42
2023-04-26T06:50:48.414Z,60.42
2023-04-26T06:51:48.436Z,59.90
2023-04-26T06:52:48.393Z,59.90
2023-04-26T06:53:48.766Z,59.93
2023-04-26T06:54:56.489Z,59.95
2023-04-26T06:55:48.432Z,59.85
2023-04-26T06:56:48.417Z,59.90
2023-04-26T06:57:48.413Z,59.90
2023-04-26T06:58:48.456Z,59.98
2023-04-26T06:59:48.428Z,60.21
2023-04-26T07:00:48.448Z,60.19
2023-04-26T07:01:48.483Z,60.18
2023-04-26T07:02:48.608Z,60.18
2023-04-26T07:03:48.556Z,59.75
2023-04-26T07:04:48.598Z,59.75
2023-04-26T07:05:48.433Z,59.79
2023-04-26T07:06:48.483Z,59.52
2023-04-26T07:07:48.416Z,59.47
2023-04-26T07:08:48.434Z,59.47
2023-04-26T07:09:48.496Z,59.17
2023-04-26T07:10:48.483Z,59.32
2023-04-26T07:11:48.454Z,59.09
2023-04-26T07:13:48.437Z,58.88
2023-04-26T07:15:48.650Z,59.15
2023-04-26T07:16:48.442Z,58.66
2023-04-26T07:17:48.553Z,58.92
2023-04-26T07:19:48.496Z,59.25
2023-04-26T07:20:48.509Z,59.60
2023-04-26T07:21:48.507Z,59.56
2023-04-26T07:22:48.518Z,59.39
2023-04-26T07:23:48.460Z,59.26
2023-04-26T07:24:48.483Z,59.19
2023-04-26T07:25:48.500Z,59.19
2023-04-26T07:26:48.481Z,58.29
2023-04-26T07:27:48.489Z,58.48
2023-04-26T07:28:48.484Z,58.58
2023-04-26T07:29:48.700Z,57.47
2023-04-26T07:31:48.462Z,57.39
2023-04-26T07:32:48.575Z,57.52
2023-04-26T07:33:48.566Z,57.57
2023-04-26T07:34:48.504Z,57.59
2023-04-26T07:35:48.534Z,58.11
2023-04-26T07:36:48.549Z,57.15
2023-04-26T07:37:48.525Z,57.68
2023-04-26T07:38:48.514Z,57.96
2023-04-26T07:39:48.495Z,57.96
2023-04-26T07:40:48.543Z,57.69
2023-04-26T07:41:48.518Z,57.19
2023-04-26T07:42:48.495Z,57.19
2023-04-26T07:43:48.529Z,57.27
2023-04-26T07:44:48.521Z,56.94
2023-04-26T07:45:48.549Z,56.94
2023-04-26T07:46:48.499Z,56.97
2023-04-26T07:47:48.540Z,57.33
2023-04-26T07:48:48.527Z,57.07
2023-04-26T07:49:48.518Z,57.07
2023-04-26T07:50:48.580Z,55.35
2023-04-26T07:51:48.556Z,55.95
2023-04-26T07:52:48.528Z,54.92
2023-04-26T07:53:48.550Z,54.92
2023-04-26T07:54:48.596Z,55.29
2023-04-26T07:55:48.527Z,55.91
2023-04-26T07:56:48.547Z,55.91
2023-04-26T07:57:48.589Z,55.71
2023-04-26T07:58:48.587Z,54.81
2023-04-26T07:59:48.535Z,54.81
2023-04-26T08:00:48.537Z,53.82
2023-04-26T08:01:48.577Z,53.57
2023-04-26T08:02:48.756Z,53.20
2023-04-26T08:03:48.919Z,53.71
2023-04-26T08:04:48.979Z,52.75
2023-04-26T08:05:48.929Z,52.16
2023-04-26T08:06:48.603Z,51.74
2023-04-26T08:07:48.566Z,51.26
2023-04-26T08:08:48.595Z,51.26
2023-04-26T08:09:48.624Z,51.35
2023-04-26T08:10:48.576Z,51.35
2023-04-26T08:11:48.602Z,50.86
2023-04-26T08:12:48.560Z,50.86
2023-04-26T08:13:48.594Z,50.80
2023-04-26T08:14:48.635Z,51.03
2023-04-26T08:15:48.618Z,51.03
2023-04-26T08:16:48.623Z,49.99
2023-04-26T08:17:48.636Z,49.41
2023-04-26T08:18:48.675Z,48.71
2023-04-26T08:19:48.639Z,48.12
2023-04-26T08:20:48.651Z,48.00
2023-04-26T08:21:48.843Z,47.87
2023-04-26T08:22:48.650Z,47.87
2023-04-26T08:23:48.650Z,45.87
2023-04-26T08:24:48.676Z,45.40
2023-04-26T08:25:48.655Z,45.47
2023-04-26T08:26:48.637Z,45.47
2023-04-26T08:27:48.641Z,45.45
2023-04-26T08:28:48.673Z,44.86
2023-04-26T08:29:48.612Z,44.86
2023-04-26T08:30:48.686Z,44.23
2023-04-26T08:31:48.645Z,43.99
2023-04-26T08:32:48.693Z,43.86
2023-04-26T08:33:48.653Z,43.86
2023-04-26T08:34:48.666Z,43.59
2023-04-26T08:35:48.682Z,43.79
2023-04-26T08:36:48.698Z,43.40
2023-04-26T08:37:48.623Z,43.40
2023-04-26T08:38:48.662Z,43.67
2023-04-26T08:39:48.708Z,44.26
2023-04-26T08:40:48.658Z,43.77
2023-04-26T08:41:48.680Z,43.51
2023-04-26T08:42:48.674Z,43.29
2023-04-26T08:43:48.713Z,42.83
2023-04-26T08:44:48.685Z,42.65
2023-04-26T08:45:48.698Z,42.65
2023-04-26T08:46:48.816Z,43.35
2023-04-26T08:47:48.884Z,43.31
2023-04-26T08:48:48.691Z,43.26
2023-04-26T08:49:48.708Z,43.82
2023-04-26T08:50:48.671Z,43.82
2023-04-26T08:51:48.733Z,44.35
2023-04-26T08:52:48.743Z,44.75
2023-04-26T08:53:48.739Z,44.74
2023-04-26T08:54:48.734Z,44.93
2023-04-26T08:55:48.697Z,44.93
2023-04-26T08:56:48.743Z,45.05
2023-04-26T08:57:48.744Z,45.15
2023-04-26T08:58:48.726Z,44.71
2023-04-26T08:59:48.849Z,44.81
2023-04-26T09:00:48.699Z,44.90
2023-04-26T09:01:48.753Z,44.72
2023-04-26T09:02:48.881Z,44.05
2023-04-26T09:03:48.905Z,43.79
2023-04-26T09:04:48.788Z,43.79
2023-04-26T09:05:48.723Z,44.08
2023-04-26T09:06:48.689Z,44.08
2023-04-26T09:07:48.742Z,42.39
2023-04-26T09:08:48.708Z,42.39
2023-04-26T09:09:48.729Z,42.27
2023-04-26T09:10:48.794Z,42.27
2023-04-26T09:11:48.762Z,41.50
2023-04-26T09:12:48.778Z,41.21
2023-04-26T09:13:48.804Z,40.93
2023-04-26T09:14:48.793Z,39.84
2023-04-26T09:15:48.898Z,39.22
2023-04-26T09:16:48.754Z,39.22
2023-04-26T09:17:48.805Z,38.83
2023-04-26T09:18:48.798Z,39.33
2023-04-26T09:19:48.745Z,40.24
2023-04-26T09:20:48.765Z,40.07
2023-04-26T09:21:48.812Z,40.01
2023-04-26T09:22:48.732Z,40.01
2023-04-26T09:23:48.798Z,38.55
2023-04-26T09:24:48.774Z,38.03
2023-04-26T09:25:48.784Z,39.00
2023-04-26T09:26:48.780Z,38.94
2023-04-26T09:27:48.789Z,39.25
2023-04-26T09:28:48.830Z,39.78
2023-04-26T09:29:48.778Z,39.78
2023-04-26T09:30:48.815Z,39.25
2023-04-26T09:31:49.993Z,39.25
2023-04-26T09:32:48.826Z,39.00
2023-04-26T09:33:48.785Z,38.12
2023-04-26T09:35:48.797Z,38.50
2023-04-26T09:36:48.835Z,39.13
2023-04-26T09:37:58.454Z,39.56
2023-04-26T09:38:48.847Z,39.56
2023-04-26T09:39:48.819Z,39.30
2023-04-26T09:40:48.805Z,39.54
2023-04-26T09:41:48.858Z,39.89
2023-04-26T09:42:48.848Z,39.59
2023-04-26T09:43:48.822Z,39.98
2023-04-26T09:44:48.835Z,40.09
2023-04-26T09:45:48.830Z,40.09
2023-04-26T09:47:48.842Z,39.95
2023-04-26T09:48:48.840Z,39.36
2023-04-26T09:49:48.905Z,39.39
2023-04-26T09:50:48.847Z,39.38
2023-04-26T09:51:48.840Z,39.87
2023-04-26T09:53:48.840Z,39.91
2023-04-26T09:54:48.883Z,40.23
2023-04-26T09:55:48.860Z,40.53
2023-04-26T09:56:48.850Z,40.53
2023-04-26T09:57:48.836Z,40.30
2023-04-26T09:58:48.857Z,40.72
2023-04-26T09:59:48.882Z,40.13
2023-04-26T10:00:48.911Z,39.87
2023-04-26T10:01:48.842Z,39.87
2023-04-26T10:02:48.956Z,39.09
2023-04-26T10:03:49.144Z,39.00
2023-04-26T10:04:48.998Z,38.39
2023-04-26T10:05:48.884Z,38.28
2023-04-26T10:06:48.903Z,38.28
2023-04-26T10:07:48.937Z,38.24
2023-04-26T10:08:48.885Z,37.68
2023-04-26T10:09:48.926Z,37.54
2023-04-26T10:10:48.852Z,37.54
2023-04-26T10:11:48.924Z,36.36
2023-04-26T10:12:48.901Z,35.94
2023-04-26T10:13:48.934Z,35.75
2023-04-26T10:14:48.894Z,35.75
2023-04-26T10:15:48.939Z,37.10
2023-04-26T10:16:48.966Z,37.25
2023-04-26T10:17:50.701Z,36.63
2023-04-26T10:18:48.943Z,36.12
2023-04-26T10:19:48.906Z,36.12
2023-04-26T10:20:48.960Z,36.78
2023-04-26T10:21:48.900Z,36.78
2023-04-26T10:22:48.931Z,36.50
2023-04-26T10:23:48.937Z,36.99
2023-04-26T10:24:48.942Z,36.63
2023-04-26T10:25:48.962Z,36.06
2023-04-26T10:26:48.999Z,35.27
2023-04-26T10:27:48.926Z,35.27
2023-04-26T10:28:49.797Z,34.08
2023-04-26T10:29:48.958Z,34.70
2023-04-26T10:30:48.935Z,34.70
2023-04-26T10:31:49.001Z,33.68
2023-04-26T10:32:49.006Z,34.46
2023-04-26T10:33:49.011Z,35.16
2023-04-26T10:34:48.955Z,35.16
2023-04-26T10:35:48.951Z,35.58
2023-04-26T10:36:49.015Z,36.09
2023-04-26T10:37:49.000Z,36.37
2023-04-26T10:38:48.935Z,36.37
2023-04-26T10:39:48.980Z,35.47
2023-04-26T10:40:48.970Z,35.79
2023-04-26T10:42:49.031Z,35.67
2023-04-26T10:43:48.951Z,35.67
2023-04-26T10:44:48.979Z,35.63
2023-04-26T10:45:49.044Z,34.30
2023-04-26T10:46:49.012Z,34.53
2023-04-26T10:47:49.058Z,35.41
2023-04-26T10:49:49.032Z,35.30
2023-04-26T10:50:49.001Z,35.07
2023-04-26T10:51:49.007Z,34.62
2023-04-26T10:52:48.977Z,34.08
2023-04-26T10:53:49.059Z,34.46
2023-04-26T10:54:49.000Z,34.46
2023-04-26T10:55:49.035Z,34.81
2023-04-26T10:56:49.027Z,34.42
2023-04-26T10:59:54.551Z,34.71
2023-04-26T11:00:49.087Z,34.96
2023-04-26T11:01:49.120Z,34.96
2023-04-26T11:02:51.884Z,33.57
2023-04-26T11:03:49.176Z,33.57
2023-04-26T11:04:49.081Z,34.60
2023-04-26T11:05:49.038Z,34.12
2023-04-26T11:06:49.122Z,34.59
2023-04-26T11:07:49.057Z,34.83
2023-04-26T11:08:49.071Z,33.62
2023-04-26T11:09:49.027Z,33.62
2023-04-26T11:10:49.081Z,34.44
2023-04-26T11:11:49.063Z,33.58
2023-04-26T11:12:49.056Z,33.58
2023-04-26T11:13:49.120Z,33.28
2023-04-26T11:14:49.052Z,33.21
2023-04-26T11:15:51.267Z,32.70
2023-04-26T11:16:49.075Z,32.26
2023-04-26T11:17:49.087Z,32.26
2023-04-26T11:18:49.150Z,33.09
2023-04-26T11:19:49.114Z,33.80
2023-04-26T11:20:49.085Z,34.16
2023-04-26T11:21:49.128Z,34.36
2023-04-26T11:24:49.118Z,33.93
2023-04-26T11:25:49.083Z,32.88
2023-04-26T11:26:49.148Z,33.55
2023-04-26T11:27:49.125Z,34.05
2023-04-26T11:28:49.105Z,33.33
2023-04-26T11:29:49.098Z,33.90
2023-04-26T11:30:49.103Z,33.90
2023-04-26T11:31:49.115Z,33.11
2023-04-26T11:32:49.155Z,34.60
2023-04-26T11:33:50.787Z,34.60
2023-04-26T11:34:49.143Z,34.36
2023-04-26T11:35:49.108Z,33.88
2023-04-26T11:36:49.099Z,33.88
2023-04-26T11:37:49.127Z,33.57
2023-04-26T11:38:49.106Z,33.77
2023-04-26T11:39:49.105Z,33.73
2023-04-26T11:40:49.156Z,34.01
2023-04-26T11:41:49.136Z,34.01
2023-04-26T11:42:49.113Z,33.87
2023-04-26T11:43:49.183Z,33.75
2023-04-26T11:44:49.109Z,33.75
2023-04-26T11:45:49.132Z,33.19
2023-04-26T11:46:49.211Z,33.13
2023-04-26T11:47:49.233Z,33.20
2023-04-26T11:48:49.151Z,33.24
2023-04-26T11:50:49.178Z,32.84
2023-04-26T11:51:49.144Z,33.39
2023-04-26T11:52:49.183Z,33.53
2023-04-26T11:53:49.194Z,33.65
2023-04-26T11:54:49.190Z,33.31
2023-04-26T11:57:49.177Z,33.57
2023-04-26T11:58:49.179Z,33.14
2023-04-26T12:01:49.228Z,33.42
2023-04-26T12:02:49.465Z,33.42
2023-04-26T12:03:49.291Z,33.29
2023-04-26T12:04:49.442Z,33.29
2023-04-26T12:05:49.188Z,33.31
2023-04-26T12:06:49.194Z,32.81
2023-04-26T12:07:49.192Z,32.81
2023-04-26T12:08:49.239Z,33.02
2023-04-26T12:10:49.179Z,33.19
2023-04-26T12:11:49.203Z,33.20
2023-04-26T12:12:49.203Z,33.20
2023-04-26T12:13:49.249Z,32.95
2023-04-26T12:14:49.216Z,33.20
2023-04-26T12:15:49.217Z,33.42
2023-04-26T12:16:49.247Z,33.27
2023-04-26T12:17:49.254Z,32.89
2023-04-26T12:18:49.260Z,33.25
2023-04-26T12:19:49.269Z,33.96
2023-04-26T12:21:49.270Z,33.86
2023-04-26T12:22:49.242Z,33.42
2023-04-26T12:23:49.213Z,33.73
2023-04-26T12:24:49.266Z,34.03
2023-04-26T12:25:49.220Z,34.03
2023-04-26T12:26:49.271Z,33.82
2023-04-26T12:27:49.247Z,33.08
2023-04-26T12:28:49.257Z,32.55
2023-04-26T12:29:49.275Z,33.27
2023-04-26T12:31:49.275Z,33.32
2023-04-26T12:32:49.280Z,33.55
2023-04-26T12:33:49.243Z,33.43
2023-04-26T12:34:49.290Z,33.82
2023-04-26T12:36:49.258Z,33.31
2023-04-26T12:37:49.292Z,33.90
2023-04-26T12:38:49.306Z,33.67
2023-04-26T12:39:49.344Z,33.42
2023-04-26T12:40:49.275Z,33.42
2023-04-26T12:42:49.261Z,33.30
2023-04-26T12:43:49.299Z,32.95
2023-04-26T12:44:49.318Z,33.39
2023-04-26T12:45:49.404Z,34.20
2023-04-26T12:46:49.386Z,34.20
2023-04-26T12:47:49.371Z,33.90
2023-04-26T12:48:49.288Z,33.92
2023-04-26T12:49:49.294Z,33.92
2023-04-26T12:50:51.147Z,33.65
2023-04-26T12:51:49.351Z,33.31
2023-04-26T12:52:49.314Z,34.12
2023-04-26T12:53:49.351Z,33.88
2023-04-26T12:54:49.295Z,34.15
2023-04-26T12:55:49.302Z,34.27
2023-04-26T12:56:49.352Z,34.43
2023-04-26T12:57:49.322Z,34.43
2023-04-26T12:58:49.370Z,34.21
2023-04-26T12:59:49.362Z,34.22
2023-04-26T13:00:49.338Z,33.72
2023-04-26T13:01:49.345Z,33.93
2023-04-26T13:02:49.435Z,33.93
2023-04-26T13:03:49.691Z,33.91
2023-04-26T13:04:49.592Z,34.30
2023-04-26T13:05:49.318Z,34.30
2023-04-26T13:06:49.365Z,34.61
2023-04-26T13:07:49.396Z,34.42
2023-04-26T13:08:49.386Z,34.49
2023-04-26T13:09:49.354Z,35.23
2023-04-26T13:10:49.362Z,35.23
2023-04-26T13:11:49.395Z,34.88
2023-04-26T13:12:49.383Z,35.19
2023-04-26T13:13:49.401Z,35.33
2023-04-26T13:14:49.388Z,35.73
2023-04-26T13:15:49.380Z,35.73
2023-04-26T13:16:49.404Z,36.09
2023-04-26T13:17:49.450Z,35.00
2023-04-26T13:18:49.394Z,35.17
2023-04-26T13:19:49.395Z,34.22
2023-04-26T13:20:49.426Z,33.64
2023-04-26T13:21:49.427Z,33.56
2023-04-26T13:22:49.422Z,33.87
2023-04-26T13:23:49.383Z,33.87
2023-04-26T13:25:49.443Z,33.18
2023-04-26T13:26:49.404Z,33.18
2023-04-26T13:27:49.433Z,33.67
2023-04-26T13:29:49.422Z,33.62
2023-04-26T13:30:49.408Z,33.62
2023-04-26T13:31:49.428Z,33.80
2023-04-26T13:32:49.526Z,33.90
2023-04-26T13:33:49.430Z,32.82
2023-04-26T13:34:49.449Z,33.24
2023-04-26T13:35:49.435Z,33.12
2023-04-26T13:36:49.438Z,33.12
2023-04-26T13:37:49.422Z,33.39
2023-04-26T13:38:49.430Z,32.85
2023-04-26T13:39:49.409Z,32.85
2023-04-26T13:40:49.456Z,32.92
2023-04-26T13:41:49.409Z,32.92
2023-04-26T13:42:49.449Z,33.82
2023-04-26T13:43:49.451Z,33.67
2023-04-26T13:44:49.425Z,33.67
2023-04-26T13:45:49.542Z,33.85
2023-04-26T13:46:49.509Z,33.91
2023-04-26T13:47:49.503Z,34.00
2023-04-26T13:48:49.464Z,34.16
2023-04-26T13:49:49.469Z,34.58
2023-04-26T13:50:49.466Z,34.68
2023-04-26T13:51:49.427Z,34.68
2023-04-26T13:52:49.480Z,34.01
2023-04-26T13:53:49.443Z,34.31
2023-04-26T13:54:49.485Z,33.42
2023-04-26T13:55:49.476Z,33.42
2023-04-26T13:56:49.502Z,33.39
2023-04-26T13:57:49.450Z,33.39
2023-04-26T13:58:49.488Z,33.56
2023-04-26T13:59:49.549Z,33.98
2023-04-26T14:00:49.485Z,33.98
2023-04-26T14:01:50.384Z,33.38
2023-04-26T14:02:49.711Z,33.37
2023-04-26T14:03:49.678Z,33.17
2023-04-26T14:04:49.859Z,33.26
2023-04-26T14:05:49.468Z,33.26
2023-04-26T14:06:49.501Z,33.93
2023-04-26T14:07:49.545Z,33.38
2023-04-26T14:09:49.580Z,33.71
2023-04-26T14:10:49.499Z,33.71
2023-04-26T14:12:00.515Z,34.34
2023-04-26T14:12:49.572Z,34.28
2023-04-26T14:13:49.496Z,34.28
2023-04-26T14:14:49.481Z,33.42
2023-04-26T14:15:49.591Z,33.36
2023-04-26T14:16:49.535Z,33.12
2023-04-26T14:17:49.520Z,33.12